sensor_id;sensor_type;location;lat;lon;timestamp;pressure;altitude;pressure_sealevel;temperature;humidity
49827;BME280;35715;51.570;6.036;2023-03-18T00:02:12;100669.50;;;14.34;59.78
49827;BME280;35715;51.570;6.036;2023-03-18T00:04:56;100670.09;;;14.28;59.67
49827;BME280;35715;51.570;6.036;2023-03-18T00:07:22;100677.72;;;14.25;60.32
49827;BME280;35715;51.570;6.036;2023-03-18T00:09:48;100668.06;;;14.23;60.79
49827;BME280;35715;51.570;6.036;2023-03-18T00:12:13;100666.53;;;14.26;60.34
49827;BME280;35715;51.570;6.036;2023-03-18T00:17:23;100677.06;;;14.29;60.71
49827;BME280;35715;51.570;6.036;2023-03-18T00:19:49;100677.22;;;14.32;60.46
49827;BME280;35715;51.570;6.036;2023-03-18T00:22:14;100672.09;;;14.34;60.61
49827;BME280;35715;51.570;6.036;2023-03-18T00:24:40;100664.25;;;14.32;60.51
49827;BME280;35715;51.570;6.036;2023-03-18T00:27:05;100662.53;;;14.33;60.67
49827;BME280;35715;51.570;6.036;2023-03-18T00:32:15;100671.03;;;14.30;61.08
49827;BME280;35715;51.570;6.036;2023-03-18T00:34:40;100674.47;;;14.29;60.66
49827;BME280;35715;51.570;6.036;2023-03-18T00:37:06;100674.25;;;14.25;62.18
49827;BME280;35715;51.570;6.036;2023-03-18T00:39:32;100682.75;;;14.22;61.64
49827;BME280;35715;51.570;6.036;2023-03-18T00:44:42;100676.41;;;14.17;62.02
49827;BME280;35715;51.570;6.036;2023-03-18T00:47:09;100679.78;;;14.14;61.62
49827;BME280;35715;51.570;6.036;2023-03-18T00:49:34;100673.69;;;14.14;61.76
49827;BME280;35715;51.570;6.036;2023-03-18T00:52:18;100684.88;;;14.13;61.41
49827;BME280;35715;51.570;6.036;2023-03-18T00:54:43;100687.09;;;14.05;61.84
49827;BME280;35715;51.570;6.036;2023-03-18T00:57:10;100681.53;;;13.97;62.37
49827;BME280;35715;51.570;6.036;2023-03-18T00:59:36;100681.25;;;13.93;62.65
49827;BME280;35715;51.570;6.036;2023-03-18T01:02:01;100689.03;;;13.93;63.18
49827;BME280;35715;51.570;6.036;2023-03-18T01:04:45;100694.50;;;13.97;63.42
49827;BME280;35715;51.570;6.036;2023-03-18T01:10:14;100693.97;;;14.05;63.21
49827;BME280;35715;51.570;6.036;2023-03-18T01:12:40;100701.03;;;14.07;63.37
49827;BME280;35715;51.570;6.036;2023-03-18T01:15:06;100703.47;;;14.04;63.59
49827;BME280;35715;51.570;6.036;2023-03-18T01:17:34;100702.59;;;14.04;63.25
49827;BME280;35715;51.570;6.036;2023-03-18T01:20:18;100703.38;;;14.02;63.75
49827;BME280;35715;51.570;6.036;2023-03-18T01:22:44;100709.53;;;14.05;64.52
49827;BME280;35715;51.570;6.036;2023-03-18T01:25:10;100712.22;;;14.06;64.99
49827;BME280;35715;51.570;6.036;2023-03-18T01:27:56;100705.25;;;14.05;65.16
49827;BME280;35715;51.570;6.036;2023-03-18T01:30:22;100696.78;;;14.09;64.30
49827;BME280;35715;51.570;6.036;2023-03-18T01:35:32;100701.19;;;14.10;64.71
49827;BME280;35715;51.570;6.036;2023-03-18T01:37:58;100704.19;;;14.01;65.82
49827;BME280;35715;51.570;6.036;2023-03-18T01:45:34;100693.69;;;13.82;69.69
49827;BME280;35715;51.570;6.036;2023-03-18T01:48:03;100685.91;;;13.82;69.83
49827;BME280;35715;51.570;6.036;2023-03-18T01:50:32;100681.47;;;13.79;70.67
49827;BME280;35715;51.570;6.036;2023-03-18T01:52:59;100687.28;;;13.75;72.84
49827;BME280;35715;51.570;6.036;2023-03-18T01:55:45;100682.81;;;13.73;72.85
49827;BME280;35715;51.570;6.036;2023-03-18T01:58:33;100670.78;;;13.73;74.04
49827;BME280;35715;51.570;6.036;2023-03-18T02:01:27;100668.19;;;13.73;73.98
49827;BME280;35715;51.570;6.036;2023-03-18T02:06:40;100670.84;;;13.75;74.03
49827;BME280;35715;51.570;6.036;2023-03-18T02:09:06;100663.78;;;13.72;74.43
49827;BME280;35715;51.570;6.036;2023-03-18T02:11:32;100660.13;;;13.69;73.90
49827;BME280;35715;51.570;6.036;2023-03-18T02:13:58;100667.81;;;13.67;75.90
49827;BME280;35715;51.570;6.036;2023-03-18T02:16:47;100672.94;;;13.65;76.51
49827;BME280;35715;51.570;6.036;2023-03-18T02:21:54;100675.38;;;13.62;76.61
49827;BME280;35715;51.570;6.036;2023-03-18T02:29:14;100701.56;;;13.51;77.35
49827;BME280;35715;51.570;6.036;2023-03-18T02:31:59;100701.31;;;13.46;77.40
49827;BME280;35715;51.570;6.036;2023-03-18T02:34:25;100697.41;;;13.38;78.98
49827;BME280;35715;51.570;6.036;2023-03-18T02:36:53;100697.91;;;13.32;78.69
49827;BME280;35715;51.570;6.036;2023-03-18T02:39:20;100697.84;;;13.30;79.29
49827;BME280;35715;51.570;6.036;2023-03-18T02:41:46;100695.09;;;13.27;79.32
49827;BME280;35715;51.570;6.036;2023-03-18T02:44:11;100701.97;;;13.27;80.42
49827;BME280;35715;51.570;6.036;2023-03-18T02:52:05;100708.69;;;13.23;81.92
49827;BME280;35715;51.570;6.036;2023-03-18T02:54:49;100714.75;;;13.24;80.87
49827;BME280;35715;51.570;6.036;2023-03-18T02:57:15;100714.75;;;13.24;81.81
49827;BME280;35715;51.570;6.036;2023-03-18T02:59:40;100714.75;;;13.24;81.88
49827;BME280;35715;51.570;6.036;2023-03-18T03:02:06;100716.56;;;13.25;81.13
49827;BME280;35715;51.570;6.036;2023-03-18T03:07:36;100717.44;;;13.25;81.47
49827;BME280;35715;51.570;6.036;2023-03-18T03:10:03;100725.13;;;13.24;82.47
49827;BME280;35715;51.570;6.036;2023-03-18T03:12:28;100720.66;;;13.21;81.76
49827;BME280;35715;51.570;6.036;2023-03-18T03:20:23;100717.28;;;13.22;80.63
49827;BME280;35715;51.570;6.036;2023-03-18T03:22:48;100725.84;;;13.21;82.02
49827;BME280;35715;51.570;6.036;2023-03-18T03:25:14;100717.03;;;13.18;81.56
49827;BME280;35715;51.570;6.036;2023-03-18T03:27:54;100719.69;;;13.19;81.92
49827;BME280;35715;51.570;6.036;2023-03-18T03:33:04;100726.50;;;13.17;81.82
49827;BME280;35715;51.570;6.036;2023-03-18T03:35:32;100727.31;;;13.16;82.73
49827;BME280;35715;51.570;6.036;2023-03-18T03:37:58;100741.94;;;13.16;83.07
49827;BME280;35715;51.570;6.036;2023-03-18T03:40:23;100730.69;;;13.15;82.88
49827;BME280;35715;51.570;6.036;2023-03-18T03:42:49;100739.47;;;13.17;82.38
49827;BME280;35715;51.570;6.036;2023-03-18T03:45:15;100741.06;;;13.15;83.07
49827;BME280;35715;51.570;6.036;2023-03-18T03:47:44;100745.53;;;13.18;83.18
49827;BME280;35715;51.570;6.036;2023-03-18T03:50:11;100746.41;;;13.18;82.78
49827;BME280;35715;51.570;6.036;2023-03-18T03:52:36;100747.94;;;13.14;83.11
49827;BME280;35715;51.570;6.036;2023-03-18T03:55:03;100749.63;;;13.14;84.14
49827;BME280;35715;51.570;6.036;2023-03-18T03:57:30;100752.03;;;13.11;85.50
49827;BME280;35715;51.570;6.036;2023-03-18T04:00:15;100755.47;;;13.10;85.40
49827;BME280;35715;51.570;6.036;2023-03-18T04:02:41;100758.84;;;13.09;85.07
49827;BME280;35715;51.570;6.036;2023-03-18T04:05:08;100759.56;;;13.06;84.85
49827;BME280;35715;51.570;6.036;2023-03-18T04:07:35;100761.34;;;13.07;84.13
49827;BME280;35715;51.570;6.036;2023-03-18T04:10:00;100762.97;;;13.05;84.90
49827;BME280;35715;51.570;6.036;2023-03-18T04:12:26;100763.06;;;13.07;84.64
49827;BME280;35715;51.570;6.036;2023-03-18T04:14:52;100753.56;;;13.07;84.57
49827;BME280;35715;51.570;6.036;2023-03-18T04:17:19;100766.44;;;13.06;85.53
49827;BME280;35715;51.570;6.036;2023-03-18T04:20:03;100769.81;;;13.05;84.98
49827;BME280;35715;51.570;6.036;2023-03-18T04:22:29;100770.75;;;13.05;84.35
49827;BME280;35715;51.570;6.036;2023-03-18T04:24:54;100768.25;;;13.07;84.06
49827;BME280;35715;51.570;6.036;2023-03-18T04:27:20;100775.09;;;13.06;84.30
49827;BME280;35715;51.570;6.036;2023-03-18T04:30:05;100771.63;;;13.06;84.40
49827;BME280;35715;51.570;6.036;2023-03-18T04:32:30;100774.03;;;13.03;85.71
49827;BME280;35715;51.570;6.036;2023-03-18T04:34:56;100781.03;;;13.04;84.93
49827;BME280;35715;51.570;6.036;2023-03-18T04:37:23;100787.00;;;13.03;84.93
49827;BME280;35715;51.570;6.036;2023-03-18T04:39:48;100781.03;;;13.04;84.19
49827;BME280;35715;51.570;6.036;2023-03-18T04:42:14;100781.19;;;13.07;83.87
49827;BME280;35715;51.570;6.036;2023-03-18T04:44:40;100788.22;;;13.09;83.74
49827;BME280;35715;51.570;6.036;2023-03-18T04:47:06;100786.47;;;13.08;84.03
49827;BME280;35715;51.570;6.036;2023-03-18T04:49:32;100782.94;;;13.08;83.39
49827;BME280;35715;51.570;6.036;2023-03-18T04:51:57;100782.78;;;13.05;83.44
49827;BME280;35715;51.570;6.036;2023-03-18T04:54:22;100785.28;;;13.03;83.20
49827;BME280;35715;51.570;6.036;2023-03-18T04:56:48;100777.25;;;12.99;83.87
49827;BME280;35715;51.570;6.036;2023-03-18T04:59:13;100778.88;;;12.96;83.69
49827;BME280;35715;51.570;6.036;2023-03-18T05:01:38;100785.69;;;12.94;84.42
49827;BME280;35715;51.570;6.036;2023-03-18T05:04:04;100792.53;;;12.94;83.98
49827;BME280;35715;51.570;6.036;2023-03-18T05:06:30;100793.44;;;12.94;83.17
49827;BME280;35715;51.570;6.036;2023-03-18T05:08:57;100794.25;;;12.93;84.30
49827;BME280;35715;51.570;6.036;2023-03-18T05:11:23;100792.53;;;12.94;84.08
49827;BME280;35715;51.570;6.036;2023-03-18T05:13:48;100789.84;;;12.92;84.60
49827;BME280;35715;51.570;6.036;2023-03-18T05:16:14;100801.94;;;12.92;84.83
49827;BME280;35715;51.570;6.036;2023-03-18T05:18:39;100796.56;;;12.89;86.07
49827;BME280;35715;51.570;6.036;2023-03-18T05:23:49;100798.25;;;12.88;84.93
49827;BME280;35715;51.570;6.036;2023-03-18T05:26:15;100805.13;;;12.88;85.36
49827;BME280;35715;51.570;6.036;2023-03-18T05:34:08;100799.44;;;12.78;86.17
49827;BME280;35715;51.570;6.036;2023-03-18T05:36:34;100800.31;;;12.79;85.69
49827;BME280;35715;51.570;6.036;2023-03-18T05:38:59;100806.50;;;12.81;85.77
49827;BME280;35715;51.570;6.036;2023-03-18T05:41:25;100803.06;;;12.82;85.35
49827;BME280;35715;51.570;6.036;2023-03-18T05:43:50;100800.66;;;12.85;85.37
49827;BME280;35715;51.570;6.036;2023-03-18T05:46:15;100803.25;;;12.85;85.06
49827;BME280;35715;51.570;6.036;2023-03-18T05:48:41;100796.41;;;12.86;84.34
49827;BME280;35715;51.570;6.036;2023-03-18T05:51:07;100806.00;;;12.88;84.77
49827;BME280;35715;51.570;6.036;2023-03-18T05:53:32;100811.94;;;12.86;85.18
49827;BME280;35715;51.570;6.036;2023-03-18T05:55:59;100811.66;;;12.81;85.77
49827;BME280;35715;51.570;6.036;2023-03-18T05:58:25;100811.66;;;12.81;85.97
49827;BME280;35715;51.570;6.036;2023-03-18T06:00:55;100811.66;;;12.81;86.43
49827;BME280;35715;51.570;6.036;2023-03-18T06:03:20;100815.84;;;12.79;86.40
49827;BME280;35715;51.570;6.036;2023-03-18T06:05:45;100826.03;;;12.76;86.57
49827;BME280;35715;51.570;6.036;2023-03-18T06:08:29;100823.25;;;12.73;86.25
49827;BME280;35715;51.570;6.036;2023-03-18T06:10:54;100835.31;;;12.72;85.99
49827;BME280;35715;51.570;6.036;2023-03-18T06:13:19;100844.78;;;12.72;87.24
49827;BME280;35715;51.570;6.036;2023-03-18T06:15:45;100849.69;;;12.67;89.10
49827;BME280;35715;51.570;6.036;2023-03-18T06:18:11;100849.69;;;12.67;87.93
49827;BME280;35715;51.570;6.036;2023-03-18T06:20:55;100847.19;;;12.69;87.49
49827;BME280;35715;51.570;6.036;2023-03-18T06:23:20;100844.69;;;12.70;87.79
49827;BME280;35715;51.570;6.036;2023-03-18T06:25:45;100847.38;;;12.72;87.33
49827;BME280;35715;51.570;6.036;2023-03-18T06:28:11;100850.84;;;12.72;87.32
49827;BME280;35715;51.570;6.036;2023-03-18T06:30:36;100849.88;;;12.70;87.89
49827;BME280;35715;51.570;6.036;2023-03-18T06:33:02;100849.69;;;12.67;87.14
49827;BME280;35715;51.570;6.036;2023-03-18T06:35:47;100847.09;;;12.67;86.60
49827;BME280;35715;51.570;6.036;2023-03-18T06:40:57;100846.53;;;12.58;86.63
49827;BME280;35715;51.570;6.036;2023-03-18T06:43:23;100849.03;;;12.56;87.90
49827;BME280;35715;51.570;6.036;2023-03-18T06:45:53;100852.81;;;12.62;87.35
49827;BME280;35715;51.570;6.036;2023-03-18T06:48:18;100853.97;;;12.67;86.87
49827;BME280;35715;51.570;6.036;2023-03-18T06:50:44;100856.19;;;12.60;88.85
49827;BME280;35715;51.570;6.036;2023-03-18T06:53:09;100856.00;;;12.57;89.63
49827;BME280;35715;51.570;6.036;2023-03-18T06:55:36;100859.28;;;12.55;88.75
49827;BME280;35715;51.570;6.036;2023-03-18T06:58:02;100860.03;;;12.52;87.95
49827;BME280;35715;51.570;6.036;2023-03-18T07:00:27;100856.53;;;12.52;88.01
49827;BME280;35715;51.570;6.036;2023-03-18T07:02:52;100857.72;;;12.57;88.28
49827;BME280;35715;51.570;6.036;2023-03-18T07:05:18;100866.03;;;12.66;87.89
49827;BME280;35715;51.570;6.036;2023-03-18T07:07:44;100858.28;;;12.81;88.33
49827;BME280;35715;51.570;6.036;2023-03-18T07:10:16;100859.00;;;13.08;89.44
49827;BME280;35715;51.570;6.036;2023-03-18T07:12:42;100864.09;;;13.68;88.26
49827;BME280;35715;51.570;6.036;2023-03-18T07:15:07;100861.22;;;14.44;84.87
49827;BME280;35715;51.570;6.036;2023-03-18T07:17:35;100867.06;;;15.25;80.63
49827;BME280;35715;51.570;6.036;2023-03-18T07:20:01;100869.09;;;16.05;77.68
49827;BME280;35715;51.570;6.036;2023-03-18T07:22:29;100865.53;;;16.61;73.81
49827;BME280;35715;51.570;6.036;2023-03-18T07:27:57;100870.88;;;17.47;70.19
49827;BME280;35715;51.570;6.036;2023-03-18T07:30:24;100879.72;;;17.73;67.91
49827;BME280;35715;51.570;6.036;2023-03-18T07:35:35;100893.31;;;18.57;65.03
49827;BME280;35715;51.570;6.036;2023-03-18T07:38:04;100887.63;;;18.69;64.24
49827;BME280;35715;51.570;6.036;2023-03-18T07:40:29;100889.63;;;18.76;64.72
49827;BME280;35715;51.570;6.036;2023-03-18T07:42:55;100897.47;;;18.27;62.34
49827;BME280;35715;51.570;6.036;2023-03-18T07:51:07;100912.75;;;18.41;63.29
49827;BME280;35715;51.570;6.036;2023-03-18T07:53:32;100902.88;;;18.80;61.97
49827;BME280;35715;51.570;6.036;2023-03-18T07:55:59;100914.34;;;19.36;59.73
49827;BME280;35715;51.570;6.036;2023-03-18T07:58:24;100917.06;;;19.66;57.75
49827;BME280;35715;51.570;6.036;2023-03-18T08:00:51;100912.38;;;19.83;57.83
49827;BME280;35715;51.570;6.036;2023-03-18T08:03:16;100917.78;;;19.62;56.68
49827;BME280;35715;51.570;6.036;2023-03-18T08:06:01;100913.50;;;19.91;55.42
49827;BME280;35715;51.570;6.036;2023-03-18T08:08:27;100913.41;;;19.88;56.44
49827;BME280;35715;51.570;6.036;2023-03-18T08:10:59;100918.13;;;20.29;55.79
49827;BME280;35715;51.570;6.036;2023-03-18T08:19:01;100911.00;;;18.64;57.27
49827;BME280;35715;51.570;6.036;2023-03-18T08:24:10;100925.59;;;17.46;62.21
49827;BME280;35715;51.570;6.036;2023-03-18T08:26:37;100914.00;;;17.39;63.16
49827;BME280;35715;51.570;6.036;2023-03-18T08:29:02;100915.16;;;17.89;62.25
49827;BME280;35715;51.570;6.036;2023-03-18T08:31:27;100911.88;;;18.89;60.28
49827;BME280;35715;51.570;6.036;2023-03-18T08:33:52;100910.56;;;19.80;57.28
49827;BME280;35715;51.570;6.036;2023-03-18T08:36:21;100917.88;;;19.65;56.20
49827;BME280;35715;51.570;6.036;2023-03-18T08:38:46;100911.63;;;19.07;58.46
49827;BME280;35715;51.570;6.036;2023-03-18T08:41:11;100926.88;;;18.46;58.97
49827;BME280;35715;51.570;6.036;2023-03-18T08:43:37;100916.31;;;17.96;60.74
49827;BME280;35715;51.570;6.036;2023-03-18T08:46:23;100926.09;;;18.24;61.08
49827;BME280;35715;51.570;6.036;2023-03-18T08:49:07;100921.41;;;19.65;57.63
49827;BME280;35715;51.570;6.036;2023-03-18T08:51:34;100923.47;;;20.64;53.39
49827;BME280;35715;51.570;6.036;2023-03-18T08:53:59;100920.31;;;21.07;52.50
49827;BME280;35715;51.570;6.036;2023-03-18T08:56:26;100922.81;;;21.38;51.41
49827;BME280;35715;51.570;6.036;2023-03-18T08:58:52;100928.50;;;21.20;51.05
49827;BME280;35715;51.570;6.036;2023-03-18T09:01:17;100932.72;;;21.15;50.66
49827;BME280;35715;51.570;6.036;2023-03-18T09:03:45;100933.59;;;21.14;51.71
49827;BME280;35715;51.570;6.036;2023-03-18T09:08:58;100924.84;;;22.26;51.33
49827;BME280;35715;51.570;6.036;2023-03-18T09:11:42;100925.13;;;22.38;50.18
49827;BME280;35715;51.570;6.036;2023-03-18T09:14:09;100923.03;;;23.12;48.62
49827;BME280;35715;51.570;6.036;2023-03-18T09:16:35;100919.44;;;23.60;46.07
49827;BME280;35715;51.570;6.036;2023-03-18T09:19:01;100921.91;;;24.07;46.59
49827;BME280;35715;51.570;6.036;2023-03-18T09:21:27;100912.84;;;24.54;46.40
49827;BME280;35715;51.570;6.036;2023-03-18T09:23:52;100932.78;;;24.32;43.75
49827;BME280;35715;51.570;6.036;2023-03-18T09:29:39;100947.28;;;24.01;43.74
49827;BME280;35715;51.570;6.036;2023-03-18T09:32:05;100936.75;;;24.01;43.40
49827;BME280;35715;51.570;6.036;2023-03-18T09:34:49;100934.44;;;23.11;45.11
49827;BME280;35715;51.570;6.036;2023-03-18T09:40:23;100940.53;;;23.62;44.00
49827;BME280;35715;51.570;6.036;2023-03-18T09:42:54;100932.81;;;23.19;45.40
49827;BME280;35715;51.570;6.036;2023-03-18T09:46:09;100937.34;;;23.26;45.22
49827;BME280;35715;51.570;6.036;2023-03-18T09:53:55;100953.38;;;23.97;42.86
49827;BME280;35715;51.570;6.036;2023-03-18T09:56:20;100949.38;;;24.97;42.41
49827;BME280;35715;51.570;6.036;2023-03-18T09:58:53;100949.31;;;24.19;43.61
49827;BME280;35715;51.570;6.036;2023-03-18T10:01:21;100942.06;;;23.47;43.11
49827;BME280;35715;51.570;6.036;2023-03-18T10:09:33;100948.97;;;23.41;45.55
49827;BME280;35715;51.570;6.036;2023-03-18T10:14:45;100934.22;;;25.76;39.55
49827;BME280;35715;51.570;6.036;2023-03-18T10:17:31;100933.72;;;26.54;39.88
49827;BME280;35715;51.570;6.036;2023-03-18T10:20:00;100935.66;;;26.95;37.96
49827;BME280;35715;51.570;6.036;2023-03-18T10:22:58;100943.63;;;27.60;38.06
49827;BME280;35715;51.570;6.036;2023-03-18T10:35:36;100939.22;;;27.67;36.28
49827;BME280;35715;51.570;6.036;2023-03-18T10:38:03;100940.97;;;27.75;34.63
49827;BME280;35715;51.570;6.036;2023-03-18T10:40:37;100936.59;;;27.56;35.03
49827;BME280;35715;51.570;6.036;2023-03-18T10:43:22;100927.72;;;27.17;34.65
49827;BME280;35715;51.570;6.036;2023-03-18T10:48:38;100939.13;;;28.21;34.18
49827;BME280;35715;51.570;6.036;2023-03-18T10:51:24;100935.56;;;28.17;32.21
49827;BME280;35715;51.570;6.036;2023-03-18T10:56:36;100923.00;;;28.62;31.40
49827;BME280;35715;51.570;6.036;2023-03-18T10:59:12;100926.69;;;28.29;31.74
49827;BME280;35715;51.570;6.036;2023-03-18T11:01:39;100930.97;;;28.56;31.03
49827;BME280;35715;51.570;6.036;2023-03-18T11:04:24;100927.09;;;29.13;31.27
49827;BME280;35715;51.570;6.036;2023-03-18T11:15:26;100913.41;;;28.33;33.33
49827;BME280;35715;51.570;6.036;2023-03-18T11:17:51;100912.53;;;29.62;31.54
49827;BME280;35715;51.570;6.036;2023-03-18T11:20:38;100917.69;;;30.55;29.22
49827;BME280;35715;51.570;6.036;2023-03-18T11:26:01;100917.44;;;25.71;34.71
49827;BME280;35715;51.570;6.036;2023-03-18T11:28:31;100920.44;;;25.08;37.08
49827;BME280;35715;51.570;6.036;2023-03-18T11:30:57;100918.69;;;25.10;37.57
49827;BME280;35715;51.570;6.036;2023-03-18T11:33:29;100916.81;;;24.98;37.93
49827;BME280;35715;51.570;6.036;2023-03-18T11:36:06;100925.38;;;24.74;37.38
49827;BME280;35715;51.570;6.036;2023-03-18T11:38:34;100922.91;;;24.17;38.61
49827;BME280;35715;51.570;6.036;2023-03-18T11:41:17;100923.94;;;23.67;39.64
49827;BME280;35715;51.570;6.036;2023-03-18T11:46:25;100926.41;;;23.56;39.67
49827;BME280;35715;51.570;6.036;2023-03-18T11:48:51;100938.69;;;23.54;40.49
49827;BME280;35715;51.570;6.036;2023-03-18T12:01:29;100923.63;;;22.95;39.88
49827;BME280;35715;51.570;6.036;2023-03-18T12:06:46;100933.03;;;22.38;41.02
49827;BME280;35715;51.570;6.036;2023-03-18T12:19:46;100936.47;;;21.24;43.81
49827;BME280;35715;51.570;6.036;2023-03-18T12:27:52;100943.47;;;21.59;43.81
49827;BME280;35715;51.570;6.036;2023-03-18T12:39:03;100931.72;;;21.09;44.25
49827;BME280;35715;51.570;6.036;2023-03-18T12:47:18;100930.41;;;20.94;45.76
49827;BME280;35715;51.570;6.036;2023-03-18T12:52:40;100932.28;;;20.98;45.25
49827;BME280;35715;51.570;6.036;2023-03-18T12:57:56;100925.94;;;20.58;45.25
49827;BME280;35715;51.570;6.036;2023-03-18T13:03:32;100928.81;;;20.36;45.80
49827;BME280;35715;51.570;6.036;2023-03-18T13:06:22;100928.88;;;20.38;46.37
49827;BME280;35715;51.570;6.036;2023-03-18T13:16:51;100925.06;;;21.24;45.86
49827;BME280;35715;51.570;6.036;2023-03-18T13:35:48;100922.97;;;20.47;46.50
49827;BME280;35715;51.570;6.036;2023-03-18T13:43:27;100928.06;;;19.56;47.69
49827;BME280;35715;51.570;6.036;2023-03-18T13:45:55;100934.72;;;19.19;51.75
49827;BME280;35715;51.570;6.036;2023-03-18T13:51:39;100925.31;;;18.75;55.09
49827;BME280;35715;51.570;6.036;2023-03-18T13:54:04;100929.56;;;18.96;54.26
49827;BME280;35715;51.570;6.036;2023-03-18T13:56:55;100921.41;;;19.12;53.46
49827;BME280;35715;51.570;6.036;2023-03-18T14:04:48;100915.97;;;19.32;51.25
49827;BME280;35715;51.570;6.036;2023-03-18T14:07:16;100914.09;;;19.02;51.87
49827;BME280;35715;51.570;6.036;2023-03-18T14:09:48;100900.41;;;19.09;52.76
49827;BME280;35715;51.570;6.036;2023-03-18T14:17:52;100907.59;;;19.44;51.09
49827;BME280;35715;51.570;6.036;2023-03-18T14:20:39;100904.44;;;19.27;51.31
49827;BME280;35715;51.570;6.036;2023-03-18T14:25:49;100899.41;;;19.33;49.73
49827;BME280;35715;51.570;6.036;2023-03-18T14:28:23;100891.41;;;19.28;51.15
49827;BME280;35715;51.570;6.036;2023-03-18T14:33:47;100891.84;;;19.42;51.29
49827;BME280;35715;51.570;6.036;2023-03-18T14:36:15;100892.44;;;19.59;50.09
49827;BME280;35715;51.570;6.036;2023-03-18T14:38:59;100889.00;;;19.62;50.26
49827;BME280;35715;51.570;6.036;2023-03-18T14:41:27;100873.81;;;19.50;49.61
49827;BME280;35715;51.570;6.036;2023-03-18T14:43:54;100874.69;;;19.50;49.70
49827;BME280;35715;51.570;6.036;2023-03-18T14:52:04;100859.78;;;19.48;50.21
49827;BME280;35715;51.570;6.036;2023-03-18T14:54:33;100871.63;;;19.64;50.10
49827;BME280;35715;51.570;6.036;2023-03-18T14:57:02;100868.16;;;19.65;49.64
49827;BME280;35715;51.570;6.036;2023-03-18T14:59:28;100885.69;;;19.67;49.15
49827;BME280;35715;51.570;6.036;2023-03-18T15:01:53;100876.22;;;19.44;49.33
49827;BME280;35715;51.570;6.036;2023-03-18T15:04:23;100869.59;;;19.28;49.62
49827;BME280;35715;51.570;6.036;2023-03-18T15:06:52;100864.66;;;19.10;50.07
49827;BME280;35715;51.570;6.036;2023-03-18T15:12:15;100864.84;;;19.16;50.49
49827;BME280;35715;51.570;6.036;2023-03-18T15:14:41;100862.00;;;19.08;50.60
49827;BME280;35715;51.570;6.036;2023-03-18T15:17:13;100855.41;;;18.94;51.01
49827;BME280;35715;51.570;6.036;2023-03-18T15:19:39;100858.53;;;18.84;50.94
49827;BME280;35715;51.570;6.036;2023-03-18T15:25:09;100861.81;;;18.78;51.29
49827;BME280;35715;51.570;6.036;2023-03-18T15:27:42;100858.31;;;18.77;51.04
49827;BME280;35715;51.570;6.036;2023-03-18T15:33:15;100863.03;;;18.88;51.82
49827;BME280;35715;51.570;6.036;2023-03-18T15:35:52;100868.03;;;18.82;51.47
49827;BME280;35715;51.570;6.036;2023-03-18T15:38:17;100861.88;;;18.79;51.75
49827;BME280;35715;51.570;6.036;2023-03-18T15:43:47;100870.00;;;18.87;51.63
49827;BME280;35715;51.570;6.036;2023-03-18T15:49:00;100867.50;;;18.90;51.98
49827;BME280;35715;51.570;6.036;2023-03-18T15:51:27;100863.91;;;18.87;51.82
49827;BME280;35715;51.570;6.036;2023-03-18T15:53:55;100865.47;;;18.83;51.85
49827;BME280;35715;51.570;6.036;2023-03-18T15:56:32;100864.22;;;18.72;51.88
49827;BME280;35715;51.570;6.036;2023-03-18T15:59:01;100864.31;;;18.75;51.75
49827;BME280;35715;51.570;6.036;2023-03-18T16:01:36;100864.94;;;18.68;52.45
49827;BME280;35715;51.570;6.036;2023-03-18T16:04:02;100862.16;;;18.63;52.50
49827;BME280;35715;51.570;6.036;2023-03-18T16:06:32;100865.53;;;18.60;52.36
49827;BME280;35715;51.570;6.036;2023-03-18T16:12:03;100865.16;;;18.50;52.56
49827;BME280;35715;51.570;6.036;2023-03-18T16:17:15;100863.38;;;18.47;52.95
49827;BME280;35715;51.570;6.036;2023-03-18T16:19:41;100868.75;;;18.52;53.18
49827;BME280;35715;51.570;6.036;2023-03-18T16:22:08;100860.00;;;18.51;52.85
49827;BME280;35715;51.570;6.036;2023-03-18T16:27:26;100864.03;;;18.41;53.02
49827;BME280;35715;51.570;6.036;2023-03-18T16:29:53;100861.34;;;18.40;53.26
49827;BME280;35715;51.570;6.036;2023-03-18T16:32:19;100861.41;;;18.41;53.35
49827;BME280;35715;51.570;6.036;2023-03-18T16:34:44;100855.28;;;18.41;53.35
49827;BME280;35715;51.570;6.036;2023-03-18T16:37:15;100858.63;;;18.37;53.10
49827;BME280;35715;51.570;6.036;2023-03-18T16:42:46;100852.84;;;18.21;53.01
49827;BME280;35715;51.570;6.036;2023-03-18T16:45:16;100857.66;;;18.11;53.19
49827;BME280;35715;51.570;6.036;2023-03-18T16:47:46;100849.25;;;17.95;53.12
49827;BME280;35715;51.570;6.036;2023-03-18T16:50:13;100850.72;;;17.88;53.15
49827;BME280;35715;51.570;6.036;2023-03-18T16:55:22;100858.50;;;17.87;52.79
49827;BME280;35715;51.570;6.036;2023-03-18T17:02:43;100846.28;;;17.63;53.01
49827;BME280;35715;51.570;6.036;2023-03-18T17:05:08;100845.34;;;17.61;53.21
49827;BME280;35715;51.570;6.036;2023-03-18T17:07:39;100848.59;;;17.55;53.29
49827;BME280;35715;51.570;6.036;2023-03-18T17:10:05;100856.06;;;17.46;53.50
49827;BME280;35715;51.570;6.036;2023-03-18T17:12:30;100858.53;;;17.43;53.44
49827;BME280;35715;51.570;6.036;2023-03-18T17:15:15;100857.66;;;17.43;54.01
49827;BME280;35715;51.570;6.036;2023-03-18T17:17:42;100861.47;;;17.30;54.20
49827;BME280;35715;51.570;6.036;2023-03-18T17:20:18;100861.22;;;17.24;53.85
49827;BME280;35715;51.570;6.036;2023-03-18T17:22:44;100858.38;;;17.17;54.09
49827;BME280;35715;51.570;6.036;2023-03-18T17:25:28;100869.56;;;17.15;53.97
49827;BME280;35715;51.570;6.036;2023-03-18T17:28:02;100870.06;;;17.06;54.26
49827;BME280;35715;51.570;6.036;2023-03-18T17:32:53;100870.00;;;17.05;53.78
49827;BME280;35715;51.570;6.036;2023-03-18T17:35:20;100874.19;;;17.01;53.46